createdAt,value
2019-02-02T00:00:54.586Z,92977.89
2019-02-02T00:03:26.061Z,92960.58
2019-02-02T00:05:59.091Z,92956.47
2019-02-02T00:08:32.694Z,92950.95
2019-02-02T00:11:04.241Z,92958.50
2019-02-02T00:13:39.146Z,92963.45
2019-02-02T00:16:11.556Z,92972.81
2019-02-02T00:18:43.009Z,92971.96
2019-02-02T00:21:14.468Z,92954.66
2019-02-02T00:23:47.658Z,92946.37
2019-02-02T00:26:19.090Z,92952.77
2019-02-02T00:28:50.551Z,92950.34
2019-02-02T00:31:29.384Z,92946.02
2019-02-02T00:33:57.612Z,92950.06
2019-02-02T00:36:29.028Z,92946.86
2019-02-02T00:39:01.805Z,92947.66
2019-02-02T00:41:36.125Z,92950.06
2019-02-02T00:44:07.720Z,92953.89
2019-02-02T00:46:39.149Z,92947.07
2019-02-02T00:49:10.990Z,92945.70
2019-02-02T00:51:42.422Z,92953.59
2019-02-02T00:54:13.891Z,92953.69
2019-02-02T00:56:45.312Z,92944.51
2019-02-02T00:59:16.792Z,92941.79
2019-02-02T01:01:48.194Z,92935.13
2019-02-02T01:04:19.628Z,92923.33
2019-02-02T01:06:51.072Z,92924.34
2019-02-02T01:09:25.808Z,92923.23
2019-02-02T01:11:57.326Z,92923.52
2019-02-02T01:14:28.778Z,92925.88
2019-02-02T01:17:00.310Z,92937.45
2019-02-02T01:19:31.855Z,92936.33
2019-02-02T01:22:04.936Z,92946.52
2019-02-02T01:24:36.402Z,92959.08
2019-02-02T01:27:07.840Z,92960.67
2019-02-02T01:29:39.335Z,92958.95
2019-02-02T01:32:13.794Z,92950.59
2019-02-02T01:34:43.955Z,92932.48
2019-02-02T01:37:15.399Z,92926.77
2019-02-02T01:39:46.880Z,92922.88
2019-02-02T01:42:18.313Z,92930.13
2019-02-02T01:44:49.771Z,92925.49
2019-02-02T01:47:21.192Z,92919.90
2019-02-02T01:49:52.630Z,92907.02
2019-02-02T01:52:24.050Z,92903.77
2019-02-02T01:54:57.114Z,92902.40
2019-02-02T01:57:28.534Z,92910.41
2019-02-02T01:59:59.999Z,92910.19
2019-02-02T02:02:31.423Z,92908.98
2019-02-02T02:05:02.862Z,92904.10
2019-02-02T02:07:34.280Z,92893.91
2019-02-02T02:10:06.897Z,92899.33
2019-02-02T02:12:38.346Z,92912.67
2019-02-02T02:15:13.199Z,92913.08
2019-02-02T02:17:45.126Z,92915.47
2019-02-02T02:20:17.731Z,92920.02
2019-02-02T02:22:49.707Z,92921.73
2019-02-02T02:25:21.723Z,92926.07
2019-02-02T02:27:54.299Z,92926.07
2019-02-02T02:30:25.787Z,92921.36
2019-02-02T02:32:57.149Z,92923.31
2019-02-02T02:35:28.592Z,92909.94
2019-02-02T02:38:00.062Z,92911.75
2019-02-02T02:40:31.509Z,92919.38
2019-02-02T02:43:02.942Z,92916.88
2019-02-02T02:45:35.593Z,92908.98
2019-02-02T02:48:07.281Z,92909.53
2019-02-02T02:50:38.756Z,92916.02
2019-02-02T02:53:10.219Z,92925.49
2019-02-02T02:55:43.205Z,92934.81
2019-02-02T02:58:14.636Z,92935.53
2019-02-02T03:00:46.078Z,92931.91
2019-02-02T03:03:17.499Z,92930.38
2019-02-02T03:05:49.133Z,92936.69
2019-02-02T03:08:20.558Z,92943.55
2019-02-02T03:10:52.012Z,92942.84
2019-02-02T03:13:23.431Z,92936.14
2019-02-02T03:15:54.849Z,92933.95
2019-02-02T03:18:26.315Z,92933.22
2019-02-02T03:20:57.754Z,92943.03
2019-02-02T03:23:29.175Z,92942.66
2019-02-02T03:26:00.623Z,92938.17
2019-02-02T03:28:32.015Z,92943.14
2019-02-02T03:31:03.493Z,92947.24
2019-02-02T03:33:34.937Z,92947.15
2019-02-02T03:36:06.381Z,92949.47
2019-02-02T03:38:37.794Z,92957.14
2019-02-02T03:41:09.277Z,92966.11
2019-02-02T03:43:40.778Z,92958.42
2019-02-02T03:46:12.238Z,92949.36
2019-02-02T03:48:43.765Z,92957.20
2019-02-02T03:51:16.888Z,92944.91
2019-02-02T03:53:48.333Z,92961.05
2019-02-02T03:56:19.761Z,92950.05
2019-02-02T03:58:51.207Z,92945.45
2019-02-02T04:01:22.689Z,92956.71
2019-02-02T04:03:54.305Z,92966.85
2019-02-02T04:06:25.766Z,92974.77
2019-02-02T04:08:57.191Z,92980.30
2019-02-02T04:11:28.637Z,92980.81
2019-02-02T04:14:00.157Z,92972.17
2019-02-02T04:16:31.593Z,92985.14
2019-02-02T04:19:03.444Z,92980.71
2019-02-02T04:21:34.899Z,92980.41
2019-02-02T04:24:06.473Z,92979.40
2019-02-02T04:26:38.009Z,92976.80
2019-02-02T04:29:17.617Z,92977.16
2019-02-02T04:31:42.561Z,92966.44
2019-02-02T04:34:13.998Z,92964.31
2019-02-02T04:36:46.047Z,92977.94
2019-02-02T04:39:17.463Z,92981.55
2019-02-02T04:41:48.951Z,92991.81
2019-02-02T04:44:20.380Z,92989.23
2019-02-02T04:46:51.849Z,92990.84
2019-02-02T04:49:23.451Z,92990.41
2019-02-02T04:51:54.971Z,92988.48
2019-02-02T04:54:26.387Z,92976.69
2019-02-02T04:56:57.866Z,92960.84
2019-02-02T04:59:29.731Z,92945.59
2019-02-02T05:02:01.305Z,92966.23
2019-02-02T05:04:34.565Z,92980.91
2019-02-02T05:07:07.101Z,92981.63
2019-02-02T05:09:38.516Z,92988.92
2019-02-02T05:12:09.901Z,92996.84
2019-02-02T05:14:41.383Z,93005.98
2019-02-02T05:17:12.944Z,92997.03
2019-02-02T05:19:44.396Z,92991.59
2019-02-02T05:22:15.876Z,92985.00
2019-02-02T05:24:47.297Z,92987.20
2019-02-02T05:27:18.746Z,92989.13
2019-02-02T05:29:50.087Z,92977.91
2019-02-02T05:32:21.542Z,92974.86
2019-02-02T05:34:52.895Z,92971.03
2019-02-02T05:37:24.350Z,92968.78
2019-02-02T05:39:55.736Z,92969.30
2019-02-02T05:42:27.175Z,92981.30
2019-02-02T05:44:58.611Z,92980.70
2019-02-02T05:47:30.060Z,92995.66
2019-02-02T05:50:03.804Z,93006.08
2019-02-02T05:52:35.267Z,93007.88
2019-02-02T05:55:09.075Z,93013.33
2019-02-02T05:57:40.523Z,93022.31
2019-02-02T06:00:28.446Z,93029.55
2019-02-02T06:02:59.923Z,93036.14
2019-02-02T06:05:32.438Z,93052.70
2019-02-02T06:08:03.884Z,93062.79
2019-02-02T06:10:35.302Z,93064.09
2019-02-02T06:13:06.872Z,93077.75
2019-02-02T06:15:38.806Z,93085.34
2019-02-02T06:18:10.270Z,93087.84
2019-02-02T06:20:41.713Z,93085.59
2019-02-02T06:23:14.297Z,93087.56
2019-02-02T06:25:45.992Z,93087.89
2019-02-02T06:28:17.486Z,93096.33
2019-02-02T06:30:48.914Z,93105.16
2019-02-02T06:33:20.374Z,93113.98
2019-02-02T06:35:51.823Z,93106.50
2019-02-02T06:38:23.302Z,93118.34
2019-02-02T06:40:54.801Z,93116.39
2019-02-02T06:43:26.328Z,93123.25
2019-02-02T06:45:57.799Z,93119.95
2019-02-02T06:48:29.230Z,93124.34
2019-02-02T06:51:00.650Z,93126.50
2019-02-02T06:53:32.103Z,93141.36
2019-02-02T06:56:03.552Z,93138.20
2019-02-02T06:58:35.012Z,93146.84
2019-02-02T07:01:06.440Z,93154.10
2019-02-02T07:03:37.940Z,93141.91
2019-02-02T07:06:09.306Z,93148.59
2019-02-02T07:08:40.746Z,93154.47
2019-02-02T07:11:18.824Z,93160.55
2019-02-02T07:13:50.140Z,93168.83
2019-02-02T07:16:21.560Z,93165.30
2019-02-02T07:18:54.253Z,93160.97
2019-02-02T07:21:25.774Z,93168.70
2019-02-02T07:23:57.279Z,93169.22
2019-02-02T07:26:28.756Z,93174.97
2019-02-02T07:29:00.201Z,93165.69
2019-02-02T07:31:31.641Z,93176.48
2019-02-02T07:34:03.178Z,93186.09
2019-02-02T07:36:34.620Z,93192.11
2019-02-02T07:39:08.323Z,93183.79
2019-02-02T07:41:41.237Z,93202.34
2019-02-02T07:44:12.808Z,93203.02
2019-02-02T07:46:44.300Z,93194.56
2019-02-02T07:49:15.742Z,93206.10
2019-02-02T07:51:47.174Z,93207.06
2019-02-02T07:54:18.639Z,93186.36
2019-02-02T07:56:50.160Z,93187.49
2019-02-02T07:59:21.651Z,93178.16
2019-02-02T08:01:54.901Z,93200.78
2019-02-02T08:04:28.493Z,93211.98
2019-02-02T08:06:59.929Z,93213.88
2019-02-02T08:09:31.381Z,93227.45
2019-02-02T08:12:07.539Z,93243.19
2019-02-02T08:14:40.087Z,93257.26
2019-02-02T08:17:11.529Z,93260.00
2019-02-02T08:19:43.043Z,93263.81
2019-02-02T08:22:14.457Z,93278.13
2019-02-02T08:24:45.944Z,93274.62
2019-02-02T08:27:20.594Z,93282.18
2019-02-02T08:29:52.063Z,93293.80
2019-02-02T08:32:23.519Z,93309.02
2019-02-02T08:34:54.972Z,93292.61
2019-02-02T08:37:26.443Z,93293.66
2019-02-02T08:39:57.925Z,93281.89
2019-02-02T08:42:29.386Z,93286.80
2019-02-02T08:45:02.512Z,93282.42
2019-02-02T08:47:33.942Z,93275.26
2019-02-02T08:50:08.381Z,93257.07
2019-02-02T08:52:39.804Z,93260.36
2019-02-02T08:55:11.276Z,93279.95
2019-02-02T08:57:42.742Z,93287.50
2019-02-02T09:00:17.618Z,93275.94
2019-02-02T09:02:50.628Z,93279.81
2019-02-02T09:05:22.729Z,93290.61
2019-02-02T09:07:54.159Z,93288.14
2019-02-02T09:10:27.812Z,93280.58
2019-02-02T09:12:59.733Z,93288.59
2019-02-02T09:15:31.310Z,93302.78
2019-02-02T09:18:02.793Z,93326.02
2019-02-02T09:20:34.252Z,93334.92
2019-02-02T09:23:07.351Z,93341.93
2019-02-02T09:25:38.752Z,93351.25
2019-02-02T09:28:10.236Z,93357.30
2019-02-02T09:30:41.733Z,93362.96
2019-02-02T09:33:13.186Z,93363.83
2019-02-02T09:35:44.688Z,93374.52
2019-02-02T09:38:19.258Z,93384.94
2019-02-02T09:40:50.771Z,93382.91
2019-02-02T09:43:22.203Z,93389.02
2019-02-02T09:45:53.662Z,93391.36
2019-02-02T09:48:25.133Z,93396.97
2019-02-02T09:50:56.536Z,93398.77
2019-02-02T09:53:28.047Z,93411.51
2019-02-02T09:55:59.518Z,93408.66
2019-02-02T09:58:31.452Z,93408.39
2019-02-02T10:01:02.937Z,93412.00
2019-02-02T10:03:34.405Z,93412.92
2019-02-02T10:06:06.095Z,93412.12
2019-02-02T10:08:37.553Z,93414.73
2019-02-02T10:11:09.094Z,93406.09
2019-02-02T10:13:40.593Z,93408.97
2019-02-02T10:16:12.046Z,93417.38
2019-02-02T10:18:43.471Z,93417.53
2019-02-02T10:21:14.993Z,93425.16
2019-02-02T10:23:46.431Z,93425.59
2019-02-02T10:26:18.003Z,93422.19
2019-02-02T10:28:49.552Z,93432.44
2019-02-02T10:31:21.005Z,93421.16
2019-02-02T10:33:52.520Z,93429.00
2019-02-02T10:36:23.898Z,93435.88
2019-02-02T10:38:55.358Z,93442.48
2019-02-02T10:41:26.859Z,93442.00
2019-02-02T10:43:58.306Z,93440.75
2019-02-02T10:46:29.751Z,93442.36
2019-02-02T10:49:01.243Z,93443.61
2019-02-02T10:51:32.712Z,93452.30
2019-02-02T10:54:05.588Z,93451.91
2019-02-02T10:56:37.309Z,93451.59
2019-02-02T10:59:08.744Z,93455.33
2019-02-02T11:01:50.442Z,93451.70
2019-02-02T11:04:13.357Z,93448.08
2019-02-02T11:06:44.860Z,93451.55
2019-02-02T11:09:16.403Z,93437.81
2019-02-02T11:11:47.923Z,93436.15
2019-02-02T11:14:19.233Z,93445.36
2019-02-02T11:16:50.786Z,93442.45
2019-02-02T11:19:22.294Z,93438.59
2019-02-02T11:21:53.776Z,93443.98
2019-02-02T11:24:25.870Z,93462.37
2019-02-02T11:26:57.505Z,93461.70
2019-02-02T11:29:29.004Z,93454.51
2019-02-02T11:32:02.868Z,93459.20
2019-02-02T11:34:33.701Z,93467.72
2019-02-02T11:37:05.315Z,93468.98
2019-02-02T11:39:36.810Z,93459.22
2019-02-02T11:42:08.294Z,93452.88
2019-02-02T11:44:39.717Z,93454.64
2019-02-02T11:47:11.317Z,93449.38
2019-02-02T11:49:49.881Z,93462.48
2019-02-02T11:52:23.370Z,93459.48
2019-02-02T11:54:54.659Z,93465.09
2019-02-02T11:57:26.150Z,93466.72
2019-02-02T11:59:57.666Z,93461.84
2019-02-02T12:02:29.196Z,93468.86
2019-02-02T12:05:00.675Z,93462.09
2019-02-02T12:07:32.117Z,93460.68
2019-02-02T12:10:03.823Z,93469.05
2019-02-02T12:12:37.904Z,93475.81
2019-02-02T12:15:11.755Z,93488.98
2019-02-02T12:17:43.210Z,93490.98
2019-02-02T12:20:16.928Z,93496.30
2019-02-02T12:22:49.074Z,93497.87
2019-02-02T12:25:20.503Z,93495.59
2019-02-02T12:27:51.982Z,93489.54
2019-02-02T12:30:35.101Z,93492.86
2019-02-02T12:33:07.419Z,93492.66
2019-02-02T12:35:40.708Z,93489.03
2019-02-02T12:38:12.307Z,93482.89
2019-02-02T12:40:43.747Z,93482.52
2019-02-02T12:43:15.270Z,93491.55
2019-02-02T12:45:53.921Z,93487.66
2019-02-02T12:48:25.365Z,93484.69
2019-02-02T12:51:00.006Z,93478.59
2019-02-02T12:53:31.464Z,93476.00
2019-02-02T12:56:02.981Z,93486.36
2019-02-02T12:58:34.422Z,93495.02
2019-02-02T13:01:05.858Z,93488.17
2019-02-02T13:03:37.310Z,93484.88
2019-02-02T13:06:08.736Z,93494.92
2019-02-02T13:08:40.111Z,93497.02
2019-02-02T13:11:11.558Z,93494.76
2019-02-02T13:13:43.040Z,93492.36
2019-02-02T13:16:14.452Z,93497.31
2019-02-02T13:18:45.924Z,93498.48
2019-02-02T13:21:17.509Z,93505.18
2019-02-02T13:23:48.962Z,93511.55
2019-02-02T13:26:20.382Z,93508.93
2019-02-02T13:28:51.784Z,93507.80
2019-02-02T13:31:23.216Z,93500.10
2019-02-02T13:33:54.661Z,93491.08
2019-02-02T13:36:29.751Z,93489.63
2019-02-02T13:38:59.298Z,93484.78
2019-02-02T13:41:33.708Z,93480.25
2019-02-02T13:44:05.275Z,93480.91
2019-02-02T13:46:36.702Z,93478.81
2019-02-02T13:49:08.174Z,93484.14
2019-02-02T13:51:39.661Z,93482.84
2019-02-02T13:54:11.191Z,93478.65
2019-02-02T13:56:42.628Z,93475.59
2019-02-02T13:59:14.105Z,93481.80
2019-02-02T14:01:46.485Z,93486.52
2019-02-02T14:04:17.963Z,93479.53
2019-02-02T14:06:49.384Z,93490.08
2019-02-02T14:09:20.862Z,93489.41
2019-02-02T14:11:52.284Z,93498.97
2019-02-02T14:14:23.757Z,93490.61
2019-02-02T14:16:55.194Z,93502.38
2019-02-02T14:19:26.682Z,93498.36
2019-02-02T14:21:58.221Z,93503.20
2019-02-02T14:24:29.790Z,93509.02
2019-02-02T14:27:01.269Z,93511.57
2019-02-02T14:29:32.768Z,93508.05
2019-02-02T14:32:04.182Z,93505.93
2019-02-02T14:34:40.197Z,93498.02
2019-02-02T14:37:08.736Z,93505.45
2019-02-02T14:39:40.226Z,93505.75
2019-02-02T14:42:11.664Z,93509.75
2019-02-02T14:44:43.137Z,93509.94
2019-02-02T14:47:15.037Z,93505.25
2019-02-02T14:49:49.581Z,93508.73
2019-02-02T14:52:20.992Z,93505.38
2019-02-02T14:54:52.442Z,93513.78
2019-02-02T14:57:23.903Z,93518.98
2019-02-02T14:59:56.410Z,93524.45
2019-02-02T15:02:27.844Z,93534.62
2019-02-02T15:04:59.289Z,93539.13
2019-02-02T15:07:30.756Z,93534.39
2019-02-02T15:10:02.323Z,93533.61
2019-02-02T15:12:37.006Z,93545.70
2019-02-02T15:15:10.124Z,93543.78
2019-02-02T15:17:44.577Z,93556.38
2019-02-02T15:20:25.898Z,93562.48
2019-02-02T15:22:57.324Z,93562.56
2019-02-02T15:25:28.926Z,93560.61
2019-02-02T15:28:00.401Z,93563.19
2019-02-02T15:30:32.416Z,93562.56
2019-02-02T15:33:03.864Z,93561.17
2019-02-02T15:35:35.511Z,93554.58
2019-02-02T15:38:07.505Z,93554.58
2019-02-02T15:40:39.027Z,93568.27
2019-02-02T15:43:10.796Z,93574.50
2019-02-02T15:45:42.393Z,93571.96
2019-02-02T15:48:13.832Z,93566.49
2019-02-02T15:50:46.969Z,93565.36
2019-02-02T15:53:18.625Z,93558.38
2019-02-02T15:55:50.497Z,93551.38
2019-02-02T15:58:22.148Z,93549.92
2019-02-02T16:00:53.623Z,93562.48
2019-02-02T16:03:25.084Z,93578.58
2019-02-02T16:05:56.649Z,93583.53
2019-02-02T16:08:28.084Z,93587.77
2019-02-02T16:10:59.562Z,93600.47
2019-02-02T16:13:31.023Z,93609.32
2019-02-02T16:16:02.524Z,93622.22
2019-02-02T16:18:33.897Z,93622.20
2019-02-02T16:21:05.362Z,93622.63
2019-02-02T16:23:36.835Z,93621.77
2019-02-02T16:26:08.337Z,93630.34
2019-02-02T16:28:39.820Z,93631.16
2019-02-02T16:31:11.303Z,93636.02
2019-02-02T16:33:42.747Z,93636.61
2019-02-02T16:36:14.208Z,93645.23
2019-02-02T16:38:45.719Z,93648.27
2019-02-02T16:41:17.183Z,93653.42
2019-02-02T16:43:48.551Z,93653.25
2019-02-02T16:46:20.014Z,93651.98
2019-02-02T16:48:53.635Z,93651.31
2019-02-02T16:51:24.721Z,93655.73
2019-02-02T16:53:56.827Z,93660.16
2019-02-02T16:56:29.399Z,93659.39
2019-02-02T16:59:00.983Z,93664.26
2019-02-02T17:01:32.468Z,93666.54
2019-02-02T17:04:15.070Z,93670.47
2019-02-02T17:06:37.590Z,93676.76
2019-02-02T17:09:10.699Z,93678.02
2019-02-02T17:11:42.263Z,93682.94
2019-02-02T17:14:13.644Z,93684.33
2019-02-02T17:16:45.239Z,93686.66
2019-02-02T17:19:16.782Z,93693.31
2019-02-02T17:21:48.729Z,93703.98
2019-02-02T17:24:20.199Z,93709.47
2019-02-02T17:26:51.691Z,93715.83
2019-02-02T17:29:23.158Z,93714.97
2019-02-02T17:31:54.661Z,93712.97
2019-02-02T17:34:27.528Z,93700.04
2019-02-02T17:36:59.194Z,93692.81
2019-02-02T17:39:30.634Z,93683.91
2019-02-02T17:42:03.940Z,93684.02
2019-02-02T17:44:35.311Z,93693.95
2019-02-02T17:47:06.809Z,93700.95
2019-02-02T17:49:38.284Z,93688.41
2019-02-02T17:52:09.762Z,93686.38
2019-02-02T17:54:41.187Z,93695.64
2019-02-02T17:57:12.716Z,93706.92
2019-02-02T17:59:44.157Z,93717.53
2019-02-02T18:02:15.605Z,93727.16
2019-02-02T18:04:47.060Z,93748.63
2019-02-02T18:07:18.518Z,93742.59
2019-02-02T18:09:49.870Z,93745.47
2019-02-02T18:12:21.366Z,93745.77
2019-02-02T18:14:52.826Z,93742.77
2019-02-02T18:17:24.307Z,93743.44
2019-02-02T18:19:55.712Z,93749.48
2019-02-02T18:22:27.186Z,93755.22
2019-02-02T18:24:58.542Z,93754.31
2019-02-02T18:27:30.008Z,93771.98
2019-02-02T18:30:01.362Z,93778.98
2019-02-02T18:32:34.069Z,93783.72
2019-02-02T18:35:06.735Z,93785.00
2019-02-02T18:37:38.207Z,93782.11
2019-02-02T18:40:11.748Z,93789.08
2019-02-02T18:42:43.243Z,93782.06
2019-02-02T18:45:21.130Z,93785.20
2019-02-02T18:47:53.219Z,93782.35
2019-02-02T18:50:24.815Z,93789.80
2019-02-02T18:52:56.842Z,93789.40
2019-02-02T18:55:54.381Z,93800.55
2019-02-02T18:58:30.544Z,93795.70
2019-02-02T19:01:02.081Z,93794.84
2019-02-02T19:03:33.634Z,93802.77
2019-02-02T19:06:05.119Z,93805.44
2019-02-02T19:08:36.544Z,93805.86
2019-02-02T19:11:07.978Z,93808.83
2019-02-02T19:13:39.601Z,93819.60
2019-02-02T19:16:11.026Z,93813.78
2019-02-02T19:18:42.487Z,93812.44
2019-02-02T19:21:17.152Z,93809.28
2019-02-02T19:23:48.628Z,93809.57
2019-02-02T19:26:20.144Z,93814.30
2019-02-02T19:28:51.889Z,93809.66
2019-02-02T19:31:26.087Z,93804.75
2019-02-02T19:33:59.178Z,93812.70
2019-02-02T19:36:30.602Z,93819.47
2019-02-02T19:39:02.052Z,93802.76
2019-02-02T19:41:37.962Z,93801.12
2019-02-02T19:44:09.412Z,93805.80
2019-02-02T19:46:40.846Z,93820.48
2019-02-02T19:49:12.315Z,93824.62
2019-02-02T19:51:43.780Z,93829.91
2019-02-02T19:54:17.011Z,93830.65
2019-02-02T19:56:48.441Z,93832.63
2019-02-02T19:59:20.435Z,93830.78
2019-02-02T20:01:52.983Z,93838.32
2019-02-02T20:04:25.030Z,93846.78
2019-02-02T20:06:56.453Z,93848.62
2019-02-02T20:09:30.765Z,93854.92
2019-02-02T20:12:02.469Z,93870.50
2019-02-02T20:14:35.290Z,93880.80
2019-02-02T20:17:06.744Z,93887.09
2019-02-02T20:19:38.294Z,93895.37
2019-02-02T20:22:09.736Z,93908.72
2019-02-02T20:24:41.221Z,93916.78
2019-02-02T20:27:13.682Z,93922.91
2019-02-02T20:29:46.731Z,93933.98
2019-02-02T20:32:18.275Z,93933.78
2019-02-02T20:34:52.078Z,93937.55
2019-02-02T20:37:23.521Z,93942.11
2019-02-02T20:39:55.006Z,93941.30
2019-02-02T20:42:26.488Z,93946.30
2019-02-02T20:44:58.284Z,93950.25
2019-02-02T20:47:30.311Z,93946.70
2019-02-02T20:50:04.710Z,93948.41
2019-02-02T20:52:46.921Z,93952.46
2019-02-02T20:55:20.494Z,93947.47
2019-02-02T20:57:54.173Z,93954.70
2019-02-02T21:00:27.361Z,93953.75
2019-02-02T21:03:00.411Z,93953.27
2019-02-02T21:05:32.321Z,93959.37
2019-02-02T21:08:07.123Z,93958.62
2019-02-02T21:10:38.589Z,93961.59
2019-02-02T21:13:10.034Z,93957.27
2019-02-02T21:15:41.494Z,93960.20
2019-02-02T21:18:12.965Z,93966.38
2019-02-02T21:20:44.426Z,93956.87
2019-02-02T21:23:16.870Z,93960.50
2019-02-02T21:25:48.348Z,93959.16
2019-02-02T21:28:19.878Z,93958.76
2019-02-02T21:30:51.777Z,93956.86
2019-02-02T21:33:23.224Z,93962.34
2019-02-02T21:36:03.518Z,93955.84
2019-02-02T21:38:27.881Z,93956.44
2019-02-02T21:40:59.342Z,93943.05
2019-02-02T21:43:30.825Z,93940.87
2019-02-02T21:46:02.262Z,93940.92
2019-02-02T21:48:36.193Z,93940.19
2019-02-02T21:51:06.940Z,93943.24
2019-02-02T21:53:38.777Z,93938.45
2019-02-02T21:56:10.430Z,93949.72
2019-02-02T21:58:44.951Z,93949.45
2019-02-02T22:01:23.752Z,93949.36
2019-02-02T22:03:49.543Z,93941.20
2019-02-02T22:06:22.920Z,93938.66
2019-02-02T22:08:54.422Z,93947.02
2019-02-02T22:11:25.860Z,93942.36
2019-02-02T22:13:57.311Z,93945.33
2019-02-02T22:16:30.406Z,93950.03
2019-02-02T22:19:01.854Z,93955.33
2019-02-02T22:21:33.329Z,93952.95
2019-02-02T22:24:04.756Z,93950.45
2019-02-02T22:26:36.652Z,93941.94
2019-02-02T22:29:08.142Z,93943.42
2019-02-02T22:31:39.594Z,93951.83
2019-02-02T22:34:11.047Z,93939.44
2019-02-02T22:36:44.578Z,93935.45
2019-02-02T22:39:15.992Z,93937.00
2019-02-02T22:41:47.519Z,93940.79
2019-02-02T22:44:18.944Z,93930.73
2019-02-02T22:46:50.412Z,93934.49
2019-02-02T22:49:22.337Z,93945.41
2019-02-02T22:51:53.838Z,93944.84
2019-02-02T22:54:25.387Z,93946.12
2019-02-02T22:56:56.993Z,93951.16
2019-02-02T22:59:28.415Z,93961.73
2019-02-02T23:02:08.253Z,93963.13
2019-02-02T23:05:18.218Z,93978.30
2019-02-02T23:08:15.225Z,93983.96
2019-02-02T23:11:21.547Z,93992.17
2019-02-02T23:14:53.544Z,93988.96
2019-02-02T23:17:24.983Z,93985.49
2019-02-02T23:19:56.503Z,93987.13
2019-02-02T23:22:27.956Z,93986.48
2019-02-02T23:24:59.578Z,93987.79
2019-02-02T23:27:30.999Z,93990.61
2019-02-02T23:30:08.750Z,93985.31
2019-02-02T23:32:40.351Z,93983.66
2019-02-02T23:35:12.213Z,93983.58
2019-02-02T23:37:43.859Z,93988.78
2019-02-02T23:40:15.630Z,93999.22
2019-02-02T23:42:47.337Z,93995.92
2019-02-02T23:45:18.779Z,93982.66
2019-02-02T23:47:51.640Z,93962.59
2019-02-02T23:50:23.081Z,93938.38
2019-02-02T23:52:54.527Z,93949.89
2019-02-02T23:55:26.050Z,93985.78
2019-02-02T23:57:57.510Z,94003.30
